Terminal Aerodrome Forecast
Issued by NWS

Home | Current Version | Previous Version | Text Only | Print | Product List | Glossary On
Versions: 1 2 3 4 5 6 7 8 9 10 11 12 13 14 15 16 17
000
FTUS44 KEPZ 312335
TAFDMN
TAF
KDMN 312335Z 0100/0124 13008KT P6SM VCTS SCT080CB SCT140 SCT250
     FM010600 06007KT P6SM FEW080 FEW250
     FM011800 16007KT P6SM FEW100 SCT250=

USA.gov is the U.S. government's official web portal to all federal, state and local government web resources and services.